Time;durP1;ratioP1;P1;durP2;ratioP2;P2;SDS_P1;SDS_P2;PMS_P1;PMS_P2;Temp;Humidity;BMP_temperature;BMP_pressure;BME280_temperature;BME280_humidity;BME280_pressure;Samples;Min_cycle;Max_cycle;Signal;HPM_P1;HPM_P2
2023/07/30 00:01:47;;;;;;;4.78;3.30;;;15.30;99.90;;;;;;5088131;28;20036;-72
2023/07/30 00:04:12;;;;;;;5.45;3.83;;;15.30;99.90;;;;;;5106310;28;20030;-72
2023/07/30 00:06:38;;;;;;;4.78;3.45;;;15.20;99.90;;;;;;5088509;28;20031;-65
2023/07/30 00:09:03;;;;;;;3.72;3.42;;;15.20;99.90;;;;;;5089846;28;20020;-63
2023/07/30 00:11:29;;;;;;;6.93;3.83;;;15.20;99.90;;;;;;5111286;28;20023;-63
2023/07/30 00:13:55;;;;;;;4.95;3.67;;;15.10;99.90;;;;;;5090651;28;20027;-64
2023/07/30 00:16:20;;;;;;;5.20;4.32;;;15.10;99.90;;;;;;5110986;28;20032;-63
2023/07/30 00:18:46;;;;;;;6.65;3.78;;;15.10;99.90;;;;;;5089832;28;20292;-63
2023/07/30 00:21:11;;;;;;;4.88;3.60;;;15.10;99.90;;;;;;5111085;28;20046;-63
2023/07/30 00:23:37;;;;;;;3.50;2.97;;;15.10;99.90;;;;;;5089876;28;20035;-64
2023/07/30 00:26:02;;;;;;;5.00;3.75;;;15.10;99.90;;;;;;5110779;28;20088;-63
2023/07/30 00:28:27;;;;;;;5.07;3.85;;;15.00;99.90;;;;;;5089925;28;20024;-63
2023/07/30 00:30:53;;;;;;;6.05;3.88;;;15.00;99.90;;;;;;5110676;28;20039;-63
2023/07/30 00:33:18;;;;;;;5.20;4.25;;;15.00;99.90;;;;;;5090453;28;20519;-53
2023/07/30 00:35:44;;;;;;;6.00;3.35;;;15.00;99.90;;;;;;5106270;28;20020;-48
2023/07/30 00:38:09;;;;;;;6.57;4.07;;;15.00;99.90;;;;;;5089899;28;20032;-51
2023/07/30 00:40:41;;;;;;;5.35;3.70;;;15.00;99.90;;;;;;5110863;28;20026;-55
2023/07/30 00:43:07;;;;;;;5.03;3.78;;;15.00;99.90;;;;;;5100804;28;20034;-60
2023/07/30 00:45:33;;;;;;;4.22;3.83;;;15.00;99.90;;;;;;5091384;28;20028;-60
2023/07/30 00:47:58;;;;;;;7.70;3.70;;;14.90;99.90;;;;;;5107147;28;20036;-59
2023/07/30 00:50:24;;;;;;;4.22;3.63;;;14.90;99.90;;;;;;5091040;28;20028;-60
2023/07/30 00:52:50;;;;;;;4.20;3.78;;;14.90;99.90;;;;;;5108812;28;20027;-60
2023/07/30 00:55:16;;;;;;;5.32;4.28;;;14.90;99.90;;;;;;5091232;28;20055;-60
2023/07/30 00:57:42;;;;;;;7.05;4.50;;;14.90;99.90;;;;;;5108382;28;20035;-60
2023/07/30 01:00:08;;;;;;;7.88;4.10;;;14.90;99.90;;;;;;5110990;28;20024;-60
2023/07/30 01:02:35;;;;;;;5.07;3.70;;;14.80;99.90;;;;;;5095487;28;20043;-59
2023/07/30 01:05:03;;;;;;;5.82;4.35;;;14.90;99.90;;;;;;5110971;28;20020;-60
2023/07/30 01:07:29;;;;;;;4.32;3.78;;;14.90;99.90;;;;;;5094309;28;20023;-59
2023/07/30 01:09:54;;;;;;;6.05;4.32;;;14.90;99.90;;;;;;5110994;28;20028;-60
2023/07/30 01:12:21;;;;;;;7.68;4.40;;;14.80;99.90;;;;;;5093353;28;20035;-60
2023/07/30 01:14:47;;;;;;;6.95;4.13;;;14.80;99.90;;;;;;5110579;28;20016;-60
2023/07/30 01:17:13;;;;;;;4.95;3.92;;;14.80;99.90;;;;;;5090900;28;20490;-60
2023/07/30 01:19:39;;;;;;;4.72;3.78;;;14.80;99.90;;;;;;5110224;28;20024;-60
2023/07/30 01:22:04;;;;;;;5.38;3.85;;;14.80;99.90;;;;;;5089319;28;20039;-59
2023/07/30 01:24:30;;;;;;;5.05;4.15;;;14.70;99.90;;;;;;5110786;28;20024;-60
2023/07/30 01:27:01;;;;;;;3.97;3.50;;;14.70;99.90;;;;;;5089492;28;20036;-59
2023/07/30 01:29:51;;;;;;;4.72;3.50;;;14.60;99.90;;;;;;5108540;28;20593;-59
2023/07/30 01:32:21;;;;;;;6.65;4.38;;;14.60;99.90;;;;;;5092120;28;20023;-59
2023/07/30 01:34:51;;;;;;;10.10;4.35;;;14.60;99.90;;;;;;5091437;28;20028;-60
2023/07/30 01:37:17;;;;;;;4.95;3.72;;;14.60;99.90;;;;;;5106913;28;20038;-60
2023/07/30 01:39:44;;;;;;;4.38;3.38;;;14.50;99.90;;;;;;5110069;28;20047;-60
2023/07/30 01:42:12;;;;;;;4.65;3.28;;;14.50;99.90;;;;;;5091203;28;20396;-59
2023/07/30 01:44:37;;;;;;;4.65;3.67;;;14.50;99.90;;;;;;5110200;28;20020;-60
2023/07/30 01:47:03;;;;;;;4.88;3.50;;;14.40;99.90;;;;;;5090109;28;20059;-59
2023/07/30 01:49:28;;;;;;;8.25;4.30;;;14.40;99.90;;;;;;5110377;28;20504;-60
2023/07/30 01:51:54;;;;;;;5.97;3.78;;;14.40;99.90;;;;;;5088905;28;20040;-59
2023/07/30 01:54:19;;;;;;;4.38;3.55;;;14.40;99.90;;;;;;5110001;28;20106;-60
2023/07/30 01:56:45;;;;;;;4.68;4.03;;;14.40;99.90;;;;;;5089816;28;20089;-60
2023/07/30 01:59:10;;;;;;;4.32;3.42;;;14.30;99.90;;;;;;5107613;28;20107;-60
2023/07/30 02:01:36;;;;;;;8.55;4.53;;;14.30;99.90;;;;;;5090138;28;20542;-60
2023/07/30 02:04:01;;;;;;;6.82;4.20;;;14.30;99.90;;;;;;5088588;28;20048;-59
2023/07/30 02:06:27;;;;;;;6.57;3.85;;;14.20;99.90;;;;;;5109065;28;20369;-60
2023/07/30 02:08:52;;;;;;;4.75;3.58;;;14.20;99.90;;;;;;5088172;28;20038;-60
2023/07/30 02:11:18;;;;;;;4.38;3.70;;;14.20;99.90;;;;;;5108944;28;20568;-60
2023/07/30 02:13:43;;;;;;;4.53;3.67;;;14.20;99.90;;;;;;5088000;28;20063;-60
2023/07/30 02:16:09;;;;;;;4.25;3.40;;;14.20;99.90;;;;;;5108941;28;20560;-60
2023/07/30 02:18:34;;;;;;;3.75;3.38;;;14.20;99.90;;;;;;5088006;28;20032;-60
2023/07/30 02:20:59;;;;;;;4.90;4.05;;;14.10;99.90;;;;;;5108856;28;20434;-60
2023/07/30 02:23:25;;;;;;;3.95;3.17;;;14.10;99.90;;;;;;5087539;28;20032;-60
2023/07/30 02:25:50;;;;;;;4.25;3.85;;;14.10;99.90;;;;;;5108799;28;20027;-60
2023/07/30 02:28:16;;;;;;;3.33;2.92;;;14.10;99.90;;;;;;5087919;28;20034;-60
2023/07/30 02:30:42;;;;;;;4.00;3.60;;;14.10;99.90;;;;;;5107488;28;20411;-59
2023/07/30 02:33:07;;;;;;;4.45;3.55;;;14.10;99.90;;;;;;5098485;28;20036;-60
2023/07/30 02:35:33;;;;;;;5.82;3.67;;;14.10;99.90;;;;;;5086487;28;20173;-61
2023/07/30 02:37:58;;;;;;;3.78;3.20;;;14.00;99.90;;;;;;5106561;28;20039;-60
2023/07/30 02:40:23;;;;;;;3.63;3.05;;;14.00;99.90;;;;;;5089300;28;20463;-60
2023/07/30 02:42:49;;;;;;;4.20;3.65;;;14.00;99.90;;;;;;5106412;28;20035;-60
2023/07/30 02:45:15;;;;;;;4.72;3.78;;;14.00;99.90;;;;;;5089350;28;20511;-60
2023/07/30 02:47:40;;;;;;;5.55;3.70;;;14.00;99.90;;;;;;5106535;28;20211;-60
2023/07/30 02:50:06;;;;;;;4.82;4.30;;;14.00;99.90;;;;;;5108916;28;20035;-60
2023/07/30 02:52:31;;;;;;;4.38;3.80;;;13.90;99.90;;;;;;5093562;28;20102;-60
2023/07/30 02:54:57;;;;;;;6.78;3.83;;;14.00;99.90;;;;;;5107624;28;20521;-60
2023/07/30 02:57:22;;;;;;;6.47;3.92;;;14.00;99.90;;;;;;5091881;28;20036;-60
2023/07/30 02:59:48;;;;;;;6.18;3.65;;;14.00;99.90;;;;;;5108986;28;20016;-60
2023/07/30 03:02:13;;;;;;;4.15;3.67;;;14.00;99.90;;;;;;5089209;28;20548;-60
2023/07/30 03:04:39;;;;;;;6.22;3.90;;;13.90;99.90;;;;;;5109089;28;20051;-60
2023/07/30 03:07:05;;;;;;;4.70;3.58;;;13.90;99.90;;;;;;5089156;28;20031;-60
2023/07/30 03:09:30;;;;;;;6.70;3.53;;;13.90;99.90;;;;;;5108975;28;20032;-60
2023/07/30 03:11:56;;;;;;;5.20;3.90;;;13.90;99.90;;;;;;5088059;28;20040;-60
2023/07/30 03:14:21;;;;;;;6.20;4.53;;;13.90;99.90;;;;;;5108759;28;20036;-60
2023/07/30 03:16:48;;;;;;;4.85;3.75;;;13.90;99.90;;;;;;5088695;28;20032;-60
2023/07/30 03:19:14;;;;;;;4.95;3.67;;;13.90;99.90;;;;;;5106877;28;20119;-60
2023/07/30 03:21:39;;;;;;;5.35;3.67;;;13.90;99.90;;;;;;5087590;28;20103;-60
2023/07/30 03:24:05;;;;;;;7.90;4.05;;;14.00;99.90;;;;;;5086822;28;20036;-60
2023/07/30 03:26:30;;;;;;;3.60;3.08;;;14.00;99.90;;;;;;5108462;28;20436;-60
2023/07/30 03:28:56;;;;;;;4.25;3.70;;;14.00;99.90;;;;;;5087399;28;20035;-60
2023/07/30 03:31:21;;;;;;;4.50;3.50;;;14.00;99.90;;;;;;5107610;28;20050;-60
2023/07/30 03:33:47;;;;;;;4.80;3.53;;;14.00;99.90;;;;;;5088798;28;20445;-60
2023/07/30 03:36:13;;;;;;;4.70;4.10;;;14.00;99.90;;;;;;5108907;28;20104;-60
2023/07/30 03:38:39;;;;;;;4.55;3.25;;;14.00;99.90;;;;;;5087096;28;20403;-60
2023/07/30 03:41:08;;;;;;;5.53;4.35;;;14.10;99.90;;;;;;5107860;28;20130;-60
2023/07/30 03:43:35;;;;;;;5.78;4.10;;;14.20;99.90;;;;;;5090320;28;20044;-60
2023/07/30 03:46:00;;;;;;;5.65;4.20;;;14.20;99.90;;;;;;5111788;28;20561;-60
2023/07/30 03:48:26;;;;;;;6.65;4.25;;;14.30;99.90;;;;;;5090793;27;20039;-60
2023/07/30 03:50:55;;;;;;;6.85;4.10;;;14.40;99.90;;;;;;5111541;28;20440;-60
2023/07/30 03:53:22;;;;;;;4.82;4.03;;;14.50;99.90;;;;;;5090505;28;20032;-61
2023/07/30 03:55:47;;;;;;;5.35;4.40;;;14.60;99.90;;;;;;5111402;28;20028;-60
2023/07/30 03:58:13;;;;;;;6.95;4.10;;;14.70;99.90;;;;;;5089238;28;20073;-60
2023/07/30 04:00:39;;;;;;;4.68;4.18;;;14.80;99.90;;;;;;5111383;28;20035;-60
2023/07/30 04:03:05;;;;;;;4.47;3.75;;;14.90;99.90;;;;;;5100579;28;20444;-60
2023/07/30 04:05:30;;;;;;;4.65;4.00;;;15.00;99.90;;;;;;5092249;28;20036;-60
2023/07/30 04:07:56;;;;;;;5.90;4.15;;;15.00;99.90;;;;;;5109538;28;20572;-60
2023/07/30 04:10:22;;;;;;;4.82;3.90;;;15.10;99.90;;;;;;5092177;28;20032;-60
2023/07/30 04:12:47;;;;;;;8.10;4.10;;;15.10;99.90;;;;;;5109134;28;20032;-60
2023/07/30 04:15:13;;;;;;;4.22;3.78;;;15.20;99.90;;;;;;5092002;28;20078;-60
2023/07/30 04:17:38;;;;;;;4.85;4.30;;;15.20;99.90;;;;;;5109235;28;20461;-59
2023/07/30 04:20:05;;;;;;;4.22;3.83;;;15.30;99.90;;;;;;5111552;28;20023;-60
2023/07/30 04:22:31;;;;;;;5.03;4.00;;;15.30;99.90;;;;;;5095756;28;20111;-60
2023/07/30 04:24:56;;;;;;;4.18;3.78;;;15.40;99.90;;;;;;5111830;28;20023;-60
2023/07/30 04:27:22;;;;;;;4.97;4.15;;;15.50;99.90;;;;;;5094344;28;20024;-60
2023/07/30 04:29:47;;;;;;;7.10;4.50;;;15.50;99.90;;;;;;5106576;28;20044;-60
2023/07/30 04:32:13;;;;;;;5.60;3.88;;;15.70;99.90;;;;;;5092798;28;20106;-60
2023/07/30 04:34:39;;;;;;;4.40;3.30;;;15.70;99.90;;;;;;5093722;28;20028;-60
2023/07/30 04:37:04;;;;;;;4.45;3.63;;;15.80;99.90;;;;;;5108491;28;20062;-60
2023/07/30 04:39:32;;;;;;;3.72;3.35;;;15.90;99.90;;;;;;5111673;28;20045;-60
2023/07/30 04:41:57;;;;;;;5.05;3.33;;;16.00;99.90;;;;;;5090351;27;20551;-60
2023/07/30 04:44:23;;;;;;;3.75;3.45;;;16.20;99.90;;;;;;5111280;28;20027;-54
2023/07/30 04:46:48;;;;;;;4.78;4.07;;;16.70;99.90;;;;;;5091244;28;20484;-54
2023/07/30 04:49:14;;;;;;;5.38;3.53;;;17.20;99.90;;;;;;5109492;28;20035;-52
2023/07/30 04:51:39;;;;;;;4.28;3.55;;;17.50;99.90;;;;;;5091277;28;20031;-55
2023/07/30 04:54:05;;;;;;;3.70;3.35;;;17.70;99.90;;;;;;5088329;28;20052;-54
2023/07/30 04:56:30;;;;;;;2.95;2.65;;;18.20;99.90;;;;;;5110629;28;20031;-55
2023/07/30 04:58:55;;;;;;;4.50;3.65;;;18.40;99.90;;;;;;5089387;28;20072;-54
2023/07/30 05:01:21;;;;;;;6.18;3.53;;;18.40;99.90;;;;;;5110079;28;20228;-53
2023/07/30 05:03:46;;;;;;;3.10;2.88;;;18.90;99.90;;;;;;5089304;28;20496;-53
2023/07/30 05:06:12;;;;;;;3.88;3.22;;;19.80;99.90;;;;;;5110078;28;20199;-55
2023/07/30 05:08:37;;;;;;;3.30;3.00;;;20.60;99.90;;;;;;5089262;28;20028;-51
2023/07/30 05:11:03;;;;;;;2.80;2.60;;;21.30;99.90;;;;;;5109914;28;20031;-52
2023/07/30 05:13:28;;;;;;;2.40;2.20;;;22.10;99.90;;;;;;5089091;28;20446;-55
2023/07/30 05:15:54;;;;;;;4.15;2.30;;;23.30;99.90;;;;;;5109859;28;20430;-52
2023/07/30 05:18:19;;;;;;;2.72;2.38;;;24.30;99.90;;;;;;5089167;28;20028;-54
2023/07/30 05:20:48;;;;;;;2.70;2.50;;;24.90;98.90;;;;;;5108220;28;20568;-51
2023/07/30 05:23:14;;;;;;;2.53;2.13;;;25.50;98.10;;;;;;5088925;28;20111;-55
2023/07/30 05:25:40;;;;;;;3.63;2.53;;;25.80;97.70;;;;;;5109818;28;20034;-54
2023/07/30 05:28:05;;;;;;;2.80;2.60;;;25.90;96.60;;;;;;5099001;28;20402;-55
2023/07/30 05:30:31;;;;;;;2.03;1.92;;;25.50;95.20;;;;;;5100795;28;20048;-52
2023/07/30 05:32:56;;;;;;;2.88;2.55;;;25.80;92.70;;;;;;5097947;28;20110;-53
2023/07/30 05:35:22;;;;;;;2.20;2.00;;;26.40;92.70;;;;;;5083371;28;20028;-54
2023/07/30 05:37:47;;;;;;;2.38;2.17;;;26.80;91.30;;;;;;5107505;28;20038;-55
2023/07/30 05:40:13;;;;;;;2.17;1.88;;;27.20;90.20;;;;;;5090367;28;20490;-54
2023/07/30 05:42:38;;;;;;;2.40;2.20;;;27.60;86.20;;;;;;5107660;28;20032;-54
2023/07/30 05:45:04;;;;;;;2.67;2.47;;;28.00;81.40;;;;;;5109747;28;20039;-54
2023/07/30 05:47:30;;;;;;;2.35;2.15;;;28.30;77.00;;;;;;5093905;28;20063;-56
2023/07/30 05:49:55;;;;;;;2.28;2.08;;;28.80;73.10;;;;;;5110067;28;20019;-52
2023/07/30 05:52:20;;;;;;;2.50;2.30;;;29.30;72.50;;;;;;5092579;28;20031;-52
2023/07/30 05:54:46;;;;;;;3.35;1.80;;;29.60;69.90;;;;;;5109485;28;20104;-56
2023/07/30 05:57:11;;;;;;;2.80;2.33;;;29.80;69.00;;;;;;5091239;28;20118;-53
2023/07/30 05:59:37;;;;;;;2.28;2.00;;;29.80;65.90;;;;;;5108486;28;20027;-54
2023/07/30 06:02:03;;;;;;;2.38;1.92;;;29.80;62.80;;;;;;5088243;28;20023;-55
2023/07/30 06:04:29;;;;;;;2.17;2.08;;;30.10;64.00;;;;;;5108724;28;20231;-56
2023/07/30 06:06:55;;;;;;;1.70;1.60;;;30.30;63.30;;;;;;5087590;28;20028;-54
2023/07/30 06:09:20;;;;;;;1.77;1.67;;;30.70;62.20;;;;;;5089615;28;20114;-53
2023/07/30 06:11:46;;;;;;;2.17;1.80;;;31.00;59.20;;;;;;5108965;28;20039;-64
2023/07/30 06:14:11;;;;;;;1.70;1.60;;;31.50;56.80;;;;;;5088189;28;20051;-53
2023/07/30 06:16:37;;;;;;;2.15;1.60;;;31.40;55.20;;;;;;5109050;28;20031;-64
2023/07/30 06:19:02;;;;;;;4.63;2.20;;;31.60;55.30;;;;;;5088075;28;20089;-64
2023/07/30 06:21:28;;;;;;;1.90;1.80;;;30.90;55.20;;;;;;5108844;28;20537;-64
2023/07/30 06:23:53;;;;;;;1.73;1.63;;;30.20;55.60;;;;;;5088024;28;20404;-64
2023/07/30 06:26:19;;;;;;;1.70;1.60;;;29.60;56.50;;;;;;5108894;28;20035;-64
2023/07/30 06:28:44;;;;;;;2.17;2.05;;;29.20;56.70;;;;;;5087848;28;20028;-64
2023/07/30 06:31:10;;;;;;;1.90;1.67;;;29.40;56.30;;;;;;5108621;28;20055;-64
2023/07/30 06:33:37;;;;;;;1.70;1.60;;;30.10;54.00;;;;;;5085152;28;20031;-63
2023/07/30 06:36:04;;;;;;;2.28;1.75;;;31.00;51.90;;;;;;5109431;28;20141;-64
2023/07/30 06:38:29;;;;;;;1.52;1.42;;;31.80;49.10;;;;;;5087883;28;20024;-64
2023/07/30 06:40:57;;;;;;;2.58;1.92;;;32.60;47.00;;;;;;5108644;28;20032;-64
2023/07/30 06:43:23;;;;;;;1.70;1.60;;;33.00;44.60;;;;;;5087338;28;20032;-64
2023/07/30 06:45:48;;;;;;;1.83;1.65;;;33.20;43.30;;;;;;5108496;28;20053;-64
2023/07/30 06:48:15;;;;;;;2.40;1.50;;;33.60;42.30;;;;;;5087945;28;20500;-63
2023/07/30 06:50:41;;;;;;;1.35;1.20;;;33.90;40.00;;;;;;5108733;28;20092;-64
2023/07/30 06:53:06;;;;;;;2.08;1.48;;;34.60;38.30;;;;;;5087309;28;20024;-64
2023/07/30 06:55:32;;;;;;;1.50;1.40;;;35.10;35.00;;;;;;5108448;28;20485;-64
2023/07/30 06:57:57;;;;;;;2.65;1.60;;;35.30;33.90;;;;;;5087468;28;20081;-63
2023/07/30 07:00:23;;;;;;;1.92;1.30;;;35.90;31.90;;;;;;5107014;28;20533;-63
2023/07/30 07:02:49;;;;;;;2.30;1.20;;;36.50;30.80;;;;;;5087264;28;20032;-63
2023/07/30 07:05:15;;;;;;;1.55;1.45;;;35.60;30.80;;;;;;5108406;28;20028;-63
2023/07/30 07:07:40;;;;;;;1.30;1.20;;;34.60;32.50;;;;;;5086088;28;20035;-63
2023/07/30 07:10:06;;;;;;;1.23;1.10;;;33.90;32.20;;;;;;5088584;28;20464;-63
2023/07/30 07:12:32;;;;;;;1.38;1.27;;;33.10;32.90;;;;;;5100542;28;20035;-63
2023/07/30 07:14:58;;;;;;;1.70;1.60;;;32.10;33.70;;;;;;5088638;28;20020;-63
2023/07/30 07:17:24;;;;;;;1.83;1.30;;;31.30;34.50;;;;;;5103889;28;20025;-63
2023/07/30 07:19:49;;;;;;;3.35;1.55;;;30.80;35.50;;;;;;5092845;28;20512;-63
2023/07/30 07:22:17;;;;;;;1.58;1.30;;;30.40;35.40;;;;;;5106777;28;20099;-63
2023/07/30 07:24:43;;;;;;;1.77;1.45;;;30.00;36.20;;;;;;5092653;28;20652;-63
2023/07/30 07:27:09;;;;;;;1.33;1.23;;;29.60;36.70;;;;;;5107761;28;20031;-63
2023/07/30 07:29:34;;;;;;;2.35;1.50;;;30.00;36.40;;;;;;5094938;28;20048;-63
2023/07/30 07:32:00;;;;;;;1.50;1.40;;;30.50;35.50;;;;;;5109612;28;20094;-63
2023/07/30 07:34:25;;;;;;;1.45;1.35;;;30.90;35.20;;;;;;5096217;28;20027;-63
2023/07/30 07:36:51;;;;;;;1.55;1.35;;;31.70;34.00;;;;;;5091136;28;20036;-62
2023/07/30 07:39:16;;;;;;;1.30;1.20;;;32.20;32.80;;;;;;5092606;28;20085;-63
2023/07/30 07:41:41;;;;;;;0.90;0.90;;;33.10;31.50;;;;;;5111885;28;20499;-63
2023/07/30 07:44:07;;;;;;;1.35;1.20;;;34.00;30.10;;;;;;5090915;28;20036;-63
2023/07/30 07:46:32;;;;;;;2.00;1.45;;;33.90;29.60;;;;;;5111973;28;20114;-63
2023/07/30 07:48:58;;;;;;;1.85;1.30;;;33.80;29.40;;;;;;5090943;28;20428;-63
2023/07/30 07:51:25;;;;;;;1.65;1.30;;;33.20;29.10;;;;;;5111966;28;20023;-63
2023/07/30 07:53:50;;;;;;;1.25;1.15;;;33.20;29.50;;;;;;5090654;28;20050;-63
2023/07/30 07:56:16;;;;;;;2.78;1.33;;;34.20;27.50;;;;;;5111813;28;20023;-63
2023/07/30 07:58:42;;;;;;;1.40;1.10;;;35.20;27.00;;;;;;5090853;28;20024;-63
2023/07/30 08:01:08;;;;;;;1.42;1.27;;;36.10;25.40;;;;;;5111684;28;20160;-63
2023/07/30 08:03:34;;;;;;;1.35;1.20;;;37.10;24.10;;;;;;5090729;28;20119;-63
2023/07/30 08:05:59;;;;;;;1.75;1.45;;;37.20;23.30;;;;;;5111628;28;20027;-63
2023/07/30 08:08:28;;;;;;;1.73;1.63;;;36.70;23.10;;;;;;5090493;28;20592;-63
2023/07/30 08:10:54;;;;;;;1.40;1.30;;;36.10;22.00;;;;;;5111537;28;20081;-63
2023/07/30 08:13:20;;;;;;;1.65;1.33;;;35.40;22.80;;;;;;5090601;28;20588;-63
2023/07/30 08:15:45;;;;;;;1.23;1.13;;;34.60;23.20;;;;;;5111181;28;20016;-63
2023/07/30 08:18:11;;;;;;;2.72;1.13;;;33.80;23.70;;;;;;5090525;28;20024;-63
2023/07/30 08:20:37;;;;;;;1.48;1.23;;;33.30;24.20;;;;;;5111293;28;20060;-63
2023/07/30 08:23:02;;;;;;;1.48;1.20;;;32.70;24.70;;;;;;5090096;28;20039;-63
2023/07/30 08:25:28;;;;;;;1.95;1.20;;;32.20;25.20;;;;;;5111108;28;20035;-63
2023/07/30 08:27:53;;;;;;;1.30;1.20;;;31.90;25.70;;;;;;5089084;28;20043;-63
2023/07/30 08:30:19;;;;;;;1.38;1.10;;;31.90;26.00;;;;;;5101678;28;20123;-63
2023/07/30 08:32:44;;;;;;;1.00;1.00;;;32.20;26.00;;;;;;5101146;28;20043;-63
2023/07/30 08:35:10;;;;;;;1.65;1.42;;;32.40;25.60;;;;;;5104462;28;20479;-63
2023/07/30 08:37:36;;;;;;;3.33;1.10;;;32.30;25.70;;;;;;5089860;28;20491;-63
2023/07/30 08:40:02;;;;;;;1.67;1.10;;;32.10;25.90;;;;;;5091365;28;20019;-63
2023/07/30 08:42:28;;;;;;;1.92;1.30;;;32.00;26.20;;;;;;5103561;28;20116;-64
2023/07/30 08:44:54;;;;;;;2.10;1.63;;;31.90;26.20;;;;;;5091210;28;20028;-63
2023/07/30 08:47:19;;;;;;;1.90;1.40;;;31.90;26.60;;;;;;5104761;28;20657;-63
2023/07/30 08:49:45;;;;;;;2.03;1.27;;;31.90;26.90;;;;;;5090931;28;20024;-63
2023/07/30 08:52:11;;;;;;;2.67;1.50;;;32.00;27.20;;;;;;5105816;28;20046;-63
2023/07/30 08:54:38;;;;;;;1.52;1.30;;;32.00;27.20;;;;;;5091096;28;20039;-62
2023/07/30 08:57:05;;;;;;;2.25;1.50;;;32.00;27.20;;;;;;5106696;28;20614;-64
2023/07/30 08:59:42;;;;;;;3.45;1.02;;;32.20;26.90;;;;;;5091140;28;20023;-63
2023/07/30 09:02:23;;;;;;;1.63;1.50;;;32.30;24.90;;;;;;5071215;28;20085;-63
2023/07/30 09:04:50;;;;;;;2.00;1.42;;;32.30;26.00;;;;;;5090809;28;20017;-63
2023/07/30 09:07:16;;;;;;;1.55;1.08;;;32.30;26.20;;;;;;5105066;28;20043;-63
2023/07/30 09:09:43;;;;;;;2.03;1.10;;;32.40;25.80;;;;;;5090631;28;20384;-63
2023/07/30 09:12:15;;;;;;;1.20;1.10;;;32.40;25.50;;;;;;5108667;28;20609;-63
2023/07/30 09:14:44;;;;;;;1.50;1.40;;;32.20;25.20;;;;;;5110968;28;20406;-63
2023/07/30 09:17:11;;;;;;;1.60;1.50;;;32.10;26.00;;;;;;5088830;28;20028;-64
2023/07/30 09:19:36;;;;;;;2.25;1.30;;;32.00;25.90;;;;;;5090715;28;20479;-62
2023/07/30 09:22:06;;;;;;;2.15;1.58;;;32.00;26.10;;;;;;5105011;28;20055;-63
2023/07/30 09:24:32;;;;;;;1.95;1.48;;;32.00;25.70;;;;;;5090705;28;20039;-63
2023/07/30 09:27:02;;;;;;;2.40;1.30;;;31.90;25.40;;;;;;5106930;28;20063;-62
2023/07/30 09:29:28;;;;;;;1.92;1.25;;;31.60;25.10;;;;;;5091696;28;20039;-63
2023/07/30 09:31:55;;;;;;;1.58;1.48;;;31.30;25.20;;;;;;5108232;28;20027;-62
2023/07/30 09:34:22;;;;;;;1.50;1.40;;;30.70;24.80;;;;;;5093648;28;20031;-63
2023/07/30 09:36:50;;;;;;;1.60;1.50;;;30.10;25.00;;;;;;5090398;28;20054;-63
2023/07/30 09:39:24;;;;;;;1.50;1.30;;;29.60;25.00;;;;;;5069843;28;20036;-63
2023/07/30 09:41:59;;;;;;;1.55;1.45;;;29.20;25.30;;;;;;5109304;28;20118;-63
2023/07/30 09:44:24;;;;;;;1.90;1.33;;;29.10;25.80;;;;;;5069535;28;20028;-63
2023/07/30 09:46:50;;;;;;;1.55;1.20;;;29.10;26.40;;;;;;5107018;28;20183;-61
2023/07/30 09:49:17;;;;;;;1.88;1.73;;;29.20;26.20;;;;;;5090198;28;20027;-63
2023/07/30 09:51:43;;;;;;;2.63;1.80;;;29.20;25.50;;;;;;5109639;28;20032;-64
2023/07/30 09:54:11;;;;;;;3.08;1.60;;;29.10;25.00;;;;;;5088504;28;20047;-63
2023/07/30 09:56:37;;;;;;;2.08;1.60;;;29.20;25.40;;;;;;5109893;28;20032;-62
2023/07/30 09:59:07;;;;;;;2.78;1.30;;;29.40;25.40;;;;;;5088262;28;20031;-60
2023/07/30 10:01:41;;;;;;;2.03;1.50;;;29.50;25.10;;;;;;5110055;28;20039;-61
2023/07/30 10:04:10;;;;;;;1.20;1.10;;;29.70;24.60;;;;;;5086660;28;20090;-61
2023/07/30 10:06:44;;;;;;;1.20;1.10;;;29.90;24.70;;;;;;5109348;28;20113;-62
2023/07/30 10:09:12;;;;;;;1.67;1.30;;;30.30;24.50;;;;;;5082683;28;20039;-63
2023/07/30 10:11:38;;;;;;;3.00;1.95;;;30.30;24.20;;;;;;5109043;28;20023;-62
2023/07/30 10:14:04;;;;;;;1.70;1.45;;;30.10;22.90;;;;;;5088000;28;20020;-63
2023/07/30 10:16:30;;;;;;;2.28;1.50;;;29.80;22.70;;;;;;5109292;28;20042;-63
2023/07/30 10:18:57;;;;;;;1.50;1.40;;;29.80;22.50;;;;;;5088164;28;20036;-63
2023/07/30 10:21:24;;;;;;;2.35;1.50;;;29.60;22.30;;;;;;5109251;28;20038;-63
2023/07/30 10:23:59;;;;;;;2.58;1.67;;;29.50;20.80;;;;;;5087817;28;20035;-63
2023/07/30 10:26:28;;;;;;;3.13;1.77;;;29.20;21.20;;;;;;5068986;28;20021;-63
2023/07/30 10:29:19;;;;;;;3.00;1.40;;;29.00;21.90;;;;;;5090041;28;20031;-63
2023/07/30 10:31:55;;;;;;;1.90;1.60;;;29.00;22.60;;;;;;5069025;28;20029;-63
2023/07/30 10:34:22;;;;;;;2.15;1.50;;;28.90;22.40;;;;;;5082095;28;20031;-63
2023/07/30 10:36:50;;;;;;;1.95;1.58;;;29.00;22.30;;;;;;5089417;28;20066;-63
2023/07/30 10:39:23;;;;;;;2.30;1.33;;;29.00;21.80;;;;;;5069108;28;20047;-63
2023/07/30 10:41:51;;;;;;;2.05;1.30;;;28.90;20.80;;;;;;5068973;28;20512;-63
2023/07/30 10:44:31;;;;;;;1.80;1.20;;;28.50;20.80;;;;;;5068910;28;20091;-63
2023/07/30 10:46:58;;;;;;;2.45;1.63;;;28.20;20.90;;;;;;5104798;28;20055;-63
2023/07/30 10:49:24;;;;;;;1.83;1.35;;;28.10;21.40;;;;;;5087656;28;20024;-63
2023/07/30 10:51:55;;;;;;;1.42;1.33;;;28.00;21.70;;;;;;5106007;28;20032;-62
2023/07/30 10:54:21;;;;;;;2.00;1.55;;;28.00;22.30;;;;;;5089044;28;20101;-63
2023/07/30 10:56:47;;;;;;;2.92;1.50;;;28.00;22.20;;;;;;5108680;28;20080;-63
2023/07/30 10:59:14;;;;;;;2.25;1.17;;;27.90;21.70;;;;;;5087234;28;20031;-63
2023/07/30 11:01:42;;;;;;;1.65;1.20;;;27.80;22.20;;;;;;5108728;28;20391;-62
2023/07/30 11:04:13;;;;;;;3.58;1.80;;;27.70;22.00;;;;;;5087097;28;20047;-63
2023/07/30 11:06:39;;;;;;;2.22;1.50;;;27.60;22.00;;;;;;5108978;28;20028;-62
2023/07/30 11:09:05;;;;;;;1.35;1.23;;;27.50;21.90;;;;;;5087408;28;20077;-63
2023/07/30 11:11:31;;;;;;;1.85;1.50;;;27.50;21.90;;;;;;5108578;28;20028;-63
2023/07/30 11:13:58;;;;;;;1.58;1.40;;;27.30;21.00;;;;;;5087373;28;20097;-63
2023/07/30 11:16:23;;;;;;;2.10;1.40;;;27.30;20.90;;;;;;5108359;28;20016;-63
2023/07/30 11:18:49;;;;;;;2.58;1.73;;;27.20;21.00;;;;;;5087385;28;20035;-62
2023/07/30 11:21:17;;;;;;;2.00;1.23;;;27.10;20.90;;;;;;5108363;28;20030;-63
2023/07/30 11:23:44;;;;;;;1.80;1.52;;;27.10;20.50;;;;;;5086970;28;20492;-63
2023/07/30 11:26:19;;;;;;;4.03;1.75;;;27.00;20.70;;;;;;5107304;28;20028;-63
2023/07/30 11:28:45;;;;;;;1.60;1.47;;;27.00;21.10;;;;;;5082404;28;20096;-62
2023/07/30 11:31:20;;;;;;;1.50;1.40;;;27.00;21.30;;;;;;5108331;28;20313;-63
2023/07/30 11:33:47;;;;;;;2.72;1.52;;;27.00;21.20;;;;;;5079567;28;20551;-63
2023/07/30 11:36:17;;;;;;;1.52;1.27;;;27.00;21.00;;;;;;5109057;28;20066;-63
2023/07/30 11:38:44;;;;;;;3.85;1.50;;;26.90;21.00;;;;;;5082240;28;20036;-63
2023/07/30 11:41:12;;;;;;;1.38;1.27;;;26.80;21.10;;;;;;5108423;28;20115;-63
2023/07/30 11:43:39;;;;;;;1.80;1.60;;;26.80;21.20;;;;;;5087098;28;20123;-62
2023/07/30 11:46:09;;;;;;;2.80;1.35;;;26.90;21.50;;;;;;5108290;28;20043;-63
2023/07/30 11:48:35;;;;;;;2.50;1.60;;;27.00;21.30;;;;;;5087274;28;20077;-63
2023/07/30 11:51:01;;;;;;;1.98;1.40;;;26.90;21.20;;;;;;5106957;28;20483;-63
2023/07/30 11:53:47;;;;;;;2.45;1.10;;;27.00;21.10;;;;;;5086995;28;20073;-63
2023/07/30 11:56:18;;;;;;;2.40;1.65;;;27.00;21.80;;;;;;5108284;28;20084;-63
2023/07/30 11:58:43;;;;;;;1.45;1.33;;;27.10;21.30;;;;;;5086502;28;20029;-64
2023/07/30 12:01:09;;;;;;;1.85;1.42;;;27.20;21.20;;;;;;5108016;28;20027;-62
2023/07/30 12:03:34;;;;;;;3.40;1.60;;;27.20;21.30;;;;;;5088104;28;20031;-63
2023/07/30 12:06:04;;;;;;;2.15;1.40;;;27.30;21.10;;;;;;5111606;28;20138;-63
2023/07/30 12:08:30;;;;;;;2.00;1.30;;;27.40;21.00;;;;;;5084042;28;20040;-63
2023/07/30 12:11:02;;;;;;;1.85;1.55;;;27.40;21.00;;;;;;5111694;28;20601;-63
2023/07/30 12:13:27;;;;;;;2.78;1.55;;;27.60;20.90;;;;;;5083352;28;20246;-63
2023/07/30 12:15:53;;;;;;;1.55;1.35;;;27.70;20.40;;;;;;5111595;28;20110;-62
2023/07/30 12:18:20;;;;;;;3.90;1.65;;;27.80;19.90;;;;;;5090530;28;20029;-52
2023/07/30 12:20:47;;;;;;;2.00;1.50;;;27.80;19.70;;;;;;5111362;28;20030;-62
2023/07/30 12:23:13;;;;;;;1.50;1.40;;;27.80;19.70;;;;;;5090336;28;20643;-62
2023/07/30 12:25:38;;;;;;;2.90;1.70;;;27.70;19.50;;;;;;5111471;28;20035;-62
2023/07/30 12:28:04;;;;;;;2.58;1.50;;;27.70;19.30;;;;;;5089981;28;20024;-63
2023/07/30 12:30:30;;;;;;;3.10;1.48;;;27.70;19.70;;;;;;5100545;28;20412;-62
2023/07/30 12:32:56;;;;;;;2.53;1.48;;;27.60;19.70;;;;;;5100063;28;20024;-62
2023/07/30 12:35:22;;;;;;;2.22;1.60;;;27.60;19.80;;;;;;5105330;28;20602;-56
2023/07/30 12:37:47;;;;;;;3.38;1.65;;;27.60;19.70;;;;;;5088523;28;20411;-58
2023/07/30 12:40:13;;;;;;;2.55;1.50;;;27.40;19.80;;;;;;5111215;28;20031;-57
2023/07/30 12:42:38;;;;;;;2.85;1.70;;;27.40;19.60;;;;;;5089978;28;20070;-58
2023/07/30 12:45:04;;;;;;;2.25;1.60;;;27.30;20.00;;;;;;5091209;28;20127;-61